Last 24 Hours

UH Manoa Atmospheric Sciences

15 Minute Data | Pacific/Honolulu
as of 9/28/21 11:58 AM HST
Station Date Time Temp (°F) RH (%) Dew Pt (°F) Wind Spd (mph) Wind Dir (°) Wind Gust (mph) Latest Rain (In) Solar Rad (W/m2) Heat Index (°F) Barometric Press (inHg) Daily Rain (In) Daily Min Temp (°F) Daily Max Temp (°F) Daily Max Wind (mph)
UH Manoa Atmospheric Sciences 9/28/21 1145 80.9 70 70.3 7.7 ENE | 58 17.2 0.00 915 84.5 30.09 0.00 75.4 81.6 21.0
UH Manoa Atmospheric Sciences 9/28/21 1130 79.8 74 70.8 8.0 NE | 53 17.7 0.00 739 80.9 30.10 0.00 75.4 80.7 21.0
UH Manoa Atmospheric Sciences 9/28/21 1115 79.0 77 71.1 9.8 NE | 39 17.6 0.00 881 79.0 30.10 0.00 75.4 80.7 21.0
UH Manoa Atmospheric Sciences 9/28/21 1100 79.2 75 70.8 9.8 NE | 45 17.9 0.00 795 79.2 30.10 0.00 75.4 80.7 21.0
UH Manoa Atmospheric Sciences 9/28/21 1045 79.3 74 70.5 10.8 NE | 39 18.4 0.00 806 79.3 30.10 0.00 75.4 80.7 21.0
UH Manoa Atmospheric Sciences 9/28/21 1030 79.9 72 70.0 10.9 NE | 40 21.0 0.00 771 81.5 30.10 0.00 75.4 80.7 21.0
UH Manoa Atmospheric Sciences 9/28/21 1015 79.8 72 69.8 10.6 NE | 43 20.3 0.00 705 80.4 30.10 0.00 75.4 80.7 20.3
UH Manoa Atmospheric Sciences 9/28/21 1000 80.1 71 69.8 9.5 NE | 47 18.7 0.00 696 82.6 30.10 0.00 75.4 80.7 19.7
UH Manoa Atmospheric Sciences 9/28/21 0945 80.1 70 69.6 9.7 NE | 42 17.2 0.00 695 82.7 30.10 0.00 75.4 80.6 19.7
UH Manoa Atmospheric Sciences 9/28/21 0930 80.1 69 69.0 6.6 NE | 51 11.8 0.00 639 82.0 30.11 0.00 75.4 80.5 19.7
UH Manoa Atmospheric Sciences 9/28/21 0915 79.8 68 68.3 7.0 NE | 56 16.3 0.00 560 80.6 30.10 0.00 75.4 80.4 19.7
UH Manoa Atmospheric Sciences 9/28/21 0900 79.6 67 67.7 7.3 NE | 44 15.4 0.00 536 79.7 30.10 0.00 75.4 80.0 19.7
UH Manoa Atmospheric Sciences 9/28/21 0845 79.1 68 67.6 7.4 NE | 53 15.4 0.00 472 79.1 30.10 0.00 75.4 79.5 19.7
UH Manoa Atmospheric Sciences 9/28/21 0830 78.6 70 67.8 7.2 NE | 54 12.9 0.00 420 78.6 30.10 0.00 75.4 79.3 19.7
UH Manoa Atmospheric Sciences 9/28/21 0815 78.0 70 67.4 5.5 ENE | 60 10.8 0.00 312 78.0 30.10 0.00 75.4 78.4 19.7
UH Manoa Atmospheric Sciences 9/28/21 0800 78.0 69 67.1 4.6 ENE | 59 8.9 0.00 300 78.0 30.10 0.00 75.4 78.4 19.7
UH Manoa Atmospheric Sciences 9/28/21 0745 77.2 70 66.6 6.1 ENE | 63 10.7 0.00 212 77.2 30.09 0.00 75.4 77.7 19.7
UH Manoa Atmospheric Sciences 9/28/21 0730 77.2 71 67.1 5.8 ENE | 63 10.5 0.00 122 77.2 30.09 0.00 75.4 77.6 19.7
UH Manoa Atmospheric Sciences 9/28/21 0715 76.9 72 67.1 5.0 ENE | 58 9.1 0.00 138 76.9 30.08 0.00 75.4 77.4 19.7
UH Manoa Atmospheric Sciences 9/28/21 0700 76.7 71 66.7 5.8 ENE | 58 14.5 0.00 39 76.7 30.08 0.00 75.4 77.4 19.7
UH Manoa Atmospheric Sciences 9/28/21 0645 76.6 72 67.1 6.2 ENE | 57 11.9 0.00 14 76.6 30.08 0.00 75.4 77.4 19.7
UH Manoa Atmospheric Sciences 9/28/21 0630 76.4 72 66.7 5.8 ENE | 64 9.8 0.00 4 76.4 30.07 0.00 75.4 77.4 19.7
UH Manoa Atmospheric Sciences 9/28/21 0615 76.2 73 66.8 6.9 ENE | 66 14.1 0.00 0 76.2 30.07 0.00 75.4 77.4 19.7
UH Manoa Atmospheric Sciences 9/28/21 0600 76.0 74 67.2 5.7 ENE | 63 10.7 0.00 0 76.0 30.07 0.00 75.4 77.4 19.7
UH Manoa Atmospheric Sciences 9/28/21 0545 76.1 74 67.3 6.0 ENE | 65 11.2 0.00 0 76.1 30.06 0.00 75.4 77.4 19.7
UH Manoa Atmospheric Sciences 9/28/21 0530 76.0 75 67.5 6.2 ENE | 62 11.8 0.00 0 76.0 30.06 0.00 75.4 77.4 19.7
UH Manoa Atmospheric Sciences 9/28/21 0515 76.2 74 67.2 5.4 ENE | 69 12.4 0.00 0 76.2 30.06 0.00 75.4 77.4 19.7
UH Manoa Atmospheric Sciences 9/28/21 0500 76.4 72 66.9 5.3 ENE | 61 13.2 0.00 0 76.4 30.06 0.00 75.4 77.4 19.7
UH Manoa Atmospheric Sciences 9/28/21 0445 76.2 72 66.6 6.0 ENE | 67 10.6 0.00 0 76.2 30.06 0.00 75.4 77.4 19.7
UH Manoa Atmospheric Sciences 9/28/21 0430 75.9 73 66.6 5.5 ENE | 60 13.1 0.00 0 75.9 30.06 0.00 75.4 77.4 19.7
UH Manoa Atmospheric Sciences 9/28/21 0415 75.9 73 66.7 5.7 ENE | 67 10.4 0.00 0 75.9 30.06 0.00 75.4 77.4 19.7
UH Manoa Atmospheric Sciences 9/28/21 0400 76.2 72 66.6 5.8 ENE | 62 12.8 0.00 0 76.2 30.06 0.00 75.4 77.4 19.7
UH Manoa Atmospheric Sciences 9/28/21 0345 76.6 71 66.4 6.0 NE | 56 12.1 0.00 0 76.6 30.06 0.00 75.4 77.4 19.7
UH Manoa Atmospheric Sciences 9/28/21 0330 76.5 73 67.1 6.1 NE | 50 14.5 0.00 0 76.5 30.06 0.00 75.4 77.4 19.7
UH Manoa Atmospheric Sciences 9/28/21 0315 76.3 74 67.3 6.0 ENE | 59 11.8 0.00 0 76.3 30.07 0.00 75.4 77.4 19.7
UH Manoa Atmospheric Sciences 9/28/21 0300 76.4 73 67.2 5.6 NE | 53 18.8 0.00 0 76.4 30.07 0.00 75.4 77.4 19.7
UH Manoa Atmospheric Sciences 9/28/21 0245 76.4 73 67.2 9.5 NE | 45 17.7 0.00 0 76.4 30.07 0.00 75.4 77.4 19.7
UH Manoa Atmospheric Sciences 9/28/21 0230 76.2 73 66.8 8.5 NE | 52 18.7 0.00 0 76.2 30.07 0.00 75.4 77.4 19.7
UH Manoa Atmospheric Sciences 9/28/21 0215 75.9 72 66.4 9.6 ENE | 60 15.5 0.00 0 75.9 30.08 0.00 75.4 77.4 19.7
UH Manoa Atmospheric Sciences 9/28/21 0200 75.6 75 67.3 8.5 ENE | 64 18.8 0.00 0 75.6 30.08 0.00 75.5 77.4 19.7
UH Manoa Atmospheric Sciences 9/28/21 0145 76.6 72 66.9 7.2 NE | 56 14.7 0.00 0 76.6 30.08 0.00 75.7 77.4 19.7
UH Manoa Atmospheric Sciences 9/28/21 0130 76.8 70 66.3 7.6 ENE | 60 19.7 0.00 0 76.8 30.09 0.00 76.5 77.4 19.7
UH Manoa Atmospheric Sciences 9/28/21 0115 76.7 70 66.3 6.4 ENE | 67 15.1 0.00 0 76.7 30.10 0.00 76.6 77.4 18.0
UH Manoa Atmospheric Sciences 9/28/21 0100 76.9 70 66.5 7.3 ENE | 64 17.8 0.00 0 76.9 30.10 0.00 76.6 77.4 18.0
UH Manoa Atmospheric Sciences 9/28/21 0045 76.9 71 66.7 5.7 ENE | 64 15.4 0.00 0 76.9 30.10 0.00 76.6 77.4 18.0
UH Manoa Atmospheric Sciences 9/28/21 0030 77.0 71 66.8 6.1 ENE | 75 18.0 0.00 0 77.0 30.10 0.00 76.6 77.4 18.0
UH Manoa Atmospheric Sciences 9/28/21 0015 77.0 71 66.9 4.2 ENE | 65 10.8 0.00 0 77.0 30.10 0.00 76.7 77.4 10.8
UH Manoa Atmospheric Sciences 9/28/21 0000 77.3 69 66.5 5.8 ENE | 75 17.1 0.00 0 77.3 30.11 0.03 75.5 83.9 25.5
UH Manoa Atmospheric Sciences 9/27/21 2345 77.4 70 66.7 6.3 ENE | 61 15.4 0.00 0 77.4 30.11 0.03 75.5 83.9 25.5
UH Manoa Atmospheric Sciences 9/27/21 2330 77.3 70 67.0 7.8 ENE | 66 19.2 0.00 0 77.3 30.11 0.03 75.5 83.9 25.5
UH Manoa Atmospheric Sciences 9/27/21 2315 77.4 72 67.6 6.8 ENE | 67 16.1 0.00 0 77.4 30.12 0.03 75.5 83.9 25.5
UH Manoa Atmospheric Sciences 9/27/21 2300 77.5 71 67.5 8.2 NE | 50 25.3 0.00 0 77.5 30.12 0.03 75.5 83.9 25.5
UH Manoa Atmospheric Sciences 9/27/21 2245 77.5 71 67.6 8.7 NE | 52 19.2 0.00 0 77.5 30.13 0.03 75.5 83.9 25.5
UH Manoa Atmospheric Sciences 9/27/21 2230 77.5 72 67.6 9.6 NE | 51 20.6 0.00 0 77.5 30.13 0.03 75.5 83.9 25.5
UH Manoa Atmospheric Sciences 9/27/21 2215 77.4 73 68.1 8.1 ENE | 58 21.1 0.00 0 77.4 30.13 0.03 75.5 83.9 25.5
UH Manoa Atmospheric Sciences 9/27/21 2200 77.4 72 67.8 7.6 NE | 53 15.3 0.00 0 77.4 30.13 0.03 75.5 83.9 25.5
UH Manoa Atmospheric Sciences 9/27/21 2145 77.3 73 68.0 8.1 ENE | 64 18.6 0.00 0 77.3 30.13 0.03 75.5 83.9 25.5
UH Manoa Atmospheric Sciences 9/27/21 2130 77.2 74 68.1 7.7 ENE | 64 15.5 0.00 0 77.2 30.13 0.03 75.5 83.9 25.5
UH Manoa Atmospheric Sciences 9/27/21 2115 77.2 74 68.3 5.0 ENE | 59 14.3 0.00 0 77.2 30.12 0.03 75.5 83.9 25.5
UH Manoa Atmospheric Sciences 9/27/21 2100 77.0 76 68.8 8.1 ENE | 64 20.0 0.00 0 77.0 30.12 0.03 75.5 83.9 25.5
UH Manoa Atmospheric Sciences 9/27/21 2045 76.8 78 69.3 6.3 ENE | 60 15.0 0.00 0 76.8 30.12 0.03 75.5 83.9 25.5
UH Manoa Atmospheric Sciences 9/27/21 2030 76.8 77 69.2 9.0 ENE | 58 18.8 0.00 0 76.8 30.12 0.03 75.5 83.9 25.5
UH Manoa Atmospheric Sciences 9/27/21 2015 76.0 80 69.3 9.3 ENE | 61 18.8 0.00 0 76.0 30.11 0.03 75.5 83.9 25.5
UH Manoa Atmospheric Sciences 9/27/21 2000 75.9 81 69.8 10.7 ENE | 61 24.0 0.02 0 75.9 30.11 0.03 75.5 83.9 25.5
UH Manoa Atmospheric Sciences 9/27/21 1945 76.6 78 69.2 11.5 ENE | 64 21.6 0.00 0 76.6 30.09 0.01 75.7 83.9 25.5
UH Manoa Atmospheric Sciences 9/27/21 1930 76.3 80 69.6 11.2 ENE | 66 19.0 0.00 0 76.3 30.09 0.01 75.7 83.9 25.5
UH Manoa Atmospheric Sciences 9/27/21 1915 76.7 78 69.3 13.9 ENE | 57 24.5 0.00 0 76.7 30.08 0.01 75.7 83.9 25.5
UH Manoa Atmospheric Sciences 9/27/21 1900 76.3 80 69.5 11.4 ENE | 62 25.5 0.00 0 76.3 30.08 0.01 75.7 83.9 25.5
UH Manoa Atmospheric Sciences 9/27/21 1845 76.0 81 69.7 9.3 ENE | 61 21.7 0.00 0 76.0 30.08 0.01 75.7 83.9 25.5
UH Manoa Atmospheric Sciences 9/27/21 1830 76.1 81 70.0 6.3 ENE | 63 16.2 0.01 2 76.1 30.08 0.01 75.7 83.9 25.5
UH Manoa Atmospheric Sciences 9/27/21 1815 77.0 78 69.7 5.3 NE | 47 14.6 0.00 8 77.0 30.07 0.00 76.4 83.9 25.5
UH Manoa Atmospheric Sciences 9/27/21 1800 77.6 76 69.6 3.9 SE | 143 12.3 0.00 27 77.6 30.07 0.00 77.2 83.9 25.5
UH Manoa Atmospheric Sciences 9/27/21 1745 77.8 76 69.6 4.8 SW | 219 14.8 0.00 130 77.8 30.07 0.00 77.2 83.9 25.5
UH Manoa Atmospheric Sciences 9/27/21 1730 77.8 77 70.0 4.6 E | 90 15.6 0.00 229 77.8 30.06 0.00 77.2 83.9 25.5
UH Manoa Atmospheric Sciences 9/27/21 1715 77.8 77 70.0 4.9 ESE | 118 17.0 0.00 87 77.8 30.06 0.00 77.2 83.9 25.5
UH Manoa Atmospheric Sciences 9/27/21 1700 78.7 75 70.1 6.2 NE | 50 20.6 0.00 114 78.7 30.06 0.00 77.6 83.9 25.5
UH Manoa Atmospheric Sciences 9/27/21 1645 79.4 72 69.8 5.1 ENE | 58 23.2 0.00 367 79.5 30.06 0.00 77.6 83.9 25.5
UH Manoa Atmospheric Sciences 9/27/21 1630 79.7 72 69.8 6.4 NE | 51 16.9 0.00 375 80.6 30.07 0.00 77.6 83.9 25.5
UH Manoa Atmospheric Sciences 9/27/21 1615 79.7 73 70.2 7.8 ENE | 57 19.4 0.00 366 80.4 30.07 0.00 77.6 83.9 25.5
UH Manoa Atmospheric Sciences 9/27/21 1600 81.5 69 70.4 6.8 NE | 53 17.5 0.00 591 85.3 30.06 0.00 77.6 83.9 25.5
UH Manoa Atmospheric Sciences 9/27/21 1545 80.7 70 70.1 6.6 NE | 43 20.9 0.00 557 84.1 30.07 0.00 77.6 83.9 25.5
UH Manoa Atmospheric Sciences 9/27/21 1530 81.5 69 70.4 8.1 NE | 49 21.5 0.00 759 85.4 30.06 0.00 77.6 83.9 25.5
UH Manoa Atmospheric Sciences 9/27/21 1515 81.0 69 70.0 11.7 NE | 51 24.7 0.00 687 84.5 30.06 0.00 77.6 83.9 25.5
UH Manoa Atmospheric Sciences 9/27/21 1500 80.7 70 70.1 13.0 NE | 46 25.1 0.00 704 84.1 30.06 0.00 77.6 83.9 25.5
UH Manoa Atmospheric Sciences 9/27/21 1445 81.4 70 70.8 11.3 NE | 51 22.7 0.00 800 85.4 30.07 0.00 77.6 83.9 25.5
UH Manoa Atmospheric Sciences 9/27/21 1430 82.5 67 70.3 12.0 NE | 48 22.2 0.00 817 86.5 30.06 0.00 77.6 83.9 25.5
UH Manoa Atmospheric Sciences 9/27/21 1415 82.0 68 70.4 13.2 NE | 54 25.3 0.00 805 86.0 30.07 0.00 77.6 83.9 25.5
UH Manoa Atmospheric Sciences 9/27/21 1400 82.8 66 70.5 9.9 NE | 55 20.3 0.00 842 87.1 30.07 0.00 77.6 83.9 25.5
UH Manoa Atmospheric Sciences 9/27/21 1345 82.8 65 69.9 11.3 NE | 39 25.5 0.00 910 86.7 30.08 0.00 77.6 83.9 25.5
UH Manoa Atmospheric Sciences 9/27/21 1330 82.3 66 70.0 12.4 NE | 45 23.7 0.00 890 86.3 30.08 0.00 77.6 83.9 24.4
UH Manoa Atmospheric Sciences 9/27/21 1315 83.2 65 70.1 10.3 NE | 49 19.7 0.00 929 87.4 30.09 0.00 77.6 83.9 24.4
UH Manoa Atmospheric Sciences 9/27/21 1300 82.4 67 70.4 10.9 NE | 42 22.2 0.00 931 86.5 30.10 0.00 77.6 83.7 24.4
UH Manoa Atmospheric Sciences 9/27/21 1245 82.5 66 70.1 12.8 NE | 38 24.4 0.00 975 86.5 30.10 0.00 77.6 83.7 24.4
UH Manoa Atmospheric Sciences 9/27/21 1230 82.6 66 70.3 10.4 NE | 42 23.3 0.00 915 86.7 30.11 0.00 77.6 83.7 23.3
UH Manoa Atmospheric Sciences 9/27/21 1215 82.8 66 70.4 8.5 NE | 51 16.7 0.00 865 87.0 30.12 0.00 77.6 83.7 23.2
UH Manoa Atmospheric Sciences 9/27/21 1200 82.7 67 70.7 9.4 NE | 45 20.0 0.00 893 87.0 30.12 0.00 77.6 83.7 23.2
UH Manoa Atmospheric Sciences 9/27/21 1145 82.2 68 70.4 8.8 NE | 41 17.4 0.00 917 86.2 30.13 0.00 77.6 82.9 23.2
Max     83.2 81 71.1 13.9 - 25.5 0.02 975 87.4 30.13 0.03 77.6 83.9 25.5
Avg     78.3 72 68.5 7.9 - 17.3 0.00 281 79.2 30.09 - - - -
Min     75.6 65 66.3 3.9 - 8.9 0.00 0 75.6 30.06 0.00 75.4 77.4 10.8